createdAt,value
2023-03-02T00:01:44.933Z,1.66
2023-03-02T00:04:19.427Z,1.65
2023-03-02T00:06:48.545Z,1.59
2023-03-02T00:09:16.775Z,1.52
2023-03-02T00:11:46.629Z,1.52
2023-03-02T00:14:14.570Z,1.55
2023-03-02T00:16:42.507Z,1.45
2023-03-02T00:19:10.573Z,1.40
2023-03-02T00:21:41.137Z,1.39
2023-03-02T00:24:09.270Z,1.36
2023-03-02T00:26:38.156Z,1.33
2023-03-02T00:29:06.438Z,1.28
2023-03-02T00:31:34.673Z,1.28
2023-03-02T00:34:04.227Z,1.31
2023-03-02T00:36:32.175Z,1.27
2023-03-02T00:39:01.958Z,1.22
2023-03-02T00:41:30.293Z,1.20
2023-03-02T00:43:58.740Z,1.15
2023-03-02T00:46:28.769Z,1.08
2023-03-02T00:48:57.356Z,1.08
2023-03-02T00:51:25.590Z,1.07
2023-03-02T00:53:53.517Z,1.04
2023-03-02T00:56:22.959Z,1.04
2023-03-02T00:58:54.180Z,1.06
2023-03-02T01:01:23.573Z,1.01
2023-03-02T01:03:54.333Z,0.96
2023-03-02T01:06:22.698Z,0.92
2023-03-02T01:08:50.567Z,0.96
2023-03-02T01:11:19.595Z,0.95
2023-03-02T01:13:49.196Z,0.91
2023-03-02T01:16:17.284Z,0.87
2023-03-02T01:18:44.954Z,0.88
2023-03-02T01:21:14.586Z,0.83
2023-03-02T01:23:42.734Z,0.86
2023-03-02T01:26:10.601Z,0.90
2023-03-02T01:28:40.660Z,0.82
2023-03-02T01:31:10.355Z,0.80
2023-03-02T01:33:37.974Z,0.73
2023-03-02T01:36:08.357Z,0.66
2023-03-02T01:38:37.185Z,0.59
2023-03-02T01:41:05.168Z,0.57
2023-03-02T01:43:32.997Z,0.42
2023-03-02T01:46:02.833Z,0.38
2023-03-02T01:48:41.458Z,0.36
2023-03-02T01:51:15.993Z,0.41
2023-03-02T01:53:46.978Z,0.45
2023-03-02T01:56:16.774Z,0.40
2023-03-02T01:58:45.386Z,0.34
2023-03-02T02:01:16.208Z,0.30
2023-03-02T02:03:46.320Z,0.29
2023-03-02T02:06:18.636Z,0.32
2023-03-02T02:08:47.304Z,0.28
2023-03-02T02:11:15.143Z,0.29
2023-03-02T02:13:43.218Z,0.31
2023-03-02T02:16:11.150Z,0.32
2023-03-02T02:18:40.489Z,0.35
2023-03-02T02:21:09.768Z,0.33
2023-03-02T02:23:40.872Z,0.34
2023-03-02T02:26:13.715Z,0.26
2023-03-02T02:28:44.740Z,0.34
2023-03-02T02:31:17.685Z,0.28
2023-03-02T02:33:47.059Z,0.29
2023-03-02T02:36:18.200Z,0.20
2023-03-02T02:38:48.152Z,0.19
2023-03-02T02:41:22.207Z,0.13
2023-03-02T02:43:51.340Z,0.15
2023-03-02T02:46:19.253Z,0.19
2023-03-02T02:48:47.120Z,0.12
2023-03-02T02:51:19.286Z,0.12
2023-03-02T02:53:49.695Z,0.05
2023-03-02T02:56:18.423Z,0.01
2023-03-02T02:58:49.072Z,-0.05
2023-03-02T03:01:20.403Z,0.02
2023-03-02T03:03:51.445Z,-0.06
2023-03-02T03:06:21.494Z,-0.04
2023-03-02T03:08:54.202Z,0.03
2023-03-02T03:11:28.678Z,0.06
2023-03-02T03:13:59.802Z,0.01
2023-03-02T03:16:31.643Z,0.03
2023-03-02T03:19:01.229Z,0.05
2023-03-02T03:21:28.985Z,0.00
2023-03-02T03:23:56.658Z,-0.01
2023-03-02T03:26:24.674Z,-0.02
2023-03-02T03:28:52.760Z,-0.03
2023-03-02T03:31:24.199Z,-0.07
2023-03-02T03:33:52.238Z,0.03
2023-03-02T03:36:19.905Z,-0.03
2023-03-02T03:38:48.900Z,-0.07
2023-03-02T03:41:16.657Z,-0.07
2023-03-02T03:43:44.376Z,-0.02
2023-03-02T03:46:12.430Z,-0.06
2023-03-02T03:48:42.208Z,-0.03
2023-03-02T03:51:10.367Z,-0.02
2023-03-02T03:53:38.460Z,-0.08
2023-03-02T03:56:07.963Z,-0.11
2023-03-02T03:58:36.236Z,-0.13
2023-03-02T04:01:04.561Z,-0.22
2023-03-02T04:03:34.573Z,-0.24
2023-03-02T04:06:03.893Z,-0.26
2023-03-02T04:08:33.616Z,-0.20
2023-03-02T04:11:01.524Z,-0.17
2023-03-02T04:13:29.758Z,-0.26
2023-03-02T04:15:57.699Z,-0.25
2023-03-02T04:18:25.352Z,-0.30
2023-03-02T04:20:52.993Z,-0.27
2023-03-02T04:23:22.095Z,-0.22
2023-03-02T04:25:49.968Z,-0.19
2023-03-02T04:28:20.823Z,-0.24
2023-03-02T04:30:48.871Z,-0.26
2023-03-02T04:33:16.849Z,-0.33
2023-03-02T04:35:45.006Z,-0.30
2023-03-02T04:38:13.543Z,-0.34
2023-03-02T04:40:42.647Z,-0.34
2023-03-02T04:43:13.636Z,-0.31
2023-03-02T04:45:41.755Z,-0.27
2023-03-02T04:48:11.007Z,-0.21
2023-03-02T04:50:38.953Z,-0.20
2023-03-02T04:53:06.927Z,-0.14
2023-03-02T04:55:34.762Z,-0.11
2023-03-02T04:58:03.738Z,-0.08
2023-03-02T05:00:34.182Z,-0.04
2023-03-02T05:03:02.367Z,-0.05
2023-03-02T05:05:31.660Z,-0.04
2023-03-02T05:07:59.441Z,0.02
2023-03-02T05:10:28.423Z,-0.04
2023-03-02T05:12:58.091Z,-0.05
2023-03-02T05:15:29.438Z,-0.03
2023-03-02T05:17:57.530Z,-0.10
2023-03-02T05:20:30.474Z,-0.07
2023-03-02T05:22:59.421Z,-0.06
2023-03-02T05:25:28.096Z,-0.06
2023-03-02T05:27:55.808Z,-0.04
2023-03-02T05:30:24.946Z,-0.09
2023-03-02T05:32:54.136Z,-0.09
2023-03-02T05:35:22.609Z,-0.06
2023-03-02T05:37:50.585Z,-0.07
2023-03-02T05:40:19.561Z,-0.03
2023-03-02T05:42:48.726Z,-0.02
2023-03-02T05:45:19.304Z,-0.08
2023-03-02T05:47:48.075Z,-0.08
2023-03-02T05:50:17.557Z,-0.09
2023-03-02T05:52:46.533Z,-0.05
2023-03-02T05:55:15.040Z,-0.02
2023-03-02T05:57:43.500Z,-0.06
2023-03-02T06:00:12.669Z,-0.10
2023-03-02T06:02:41.266Z,-0.12
2023-03-02T06:05:10.431Z,-0.10
2023-03-02T06:07:42.023Z,-0.07
2023-03-02T06:10:12.086Z,-0.09
2023-03-02T06:12:44.180Z,-0.07
2023-03-02T06:15:12.107Z,-0.04
2023-03-02T06:17:40.677Z,0.06
2023-03-02T06:20:11.442Z,0.01
2023-03-02T06:22:42.396Z,0.03
2023-03-02T06:25:11.473Z,0.04
2023-03-02T06:27:40.515Z,0.13
2023-03-02T06:30:09.924Z,0.15
2023-03-02T06:32:38.225Z,0.17
2023-03-02T06:35:07.451Z,0.20
2023-03-02T06:37:37.856Z,0.28
2023-03-02T06:40:10.367Z,0.28
2023-03-02T06:42:38.995Z,0.40
2023-03-02T06:45:07.899Z,0.38
2023-03-02T06:47:36.305Z,0.57
2023-03-02T06:50:05.217Z,0.65
2023-03-02T06:52:35.571Z,0.64
2023-03-02T06:55:04.074Z,0.71
2023-03-02T06:57:34.776Z,0.94
2023-03-02T07:00:12.572Z,1.04
2023-03-02T07:02:41.288Z,1.33
2023-03-02T07:05:10.963Z,1.25
2023-03-02T07:07:41.482Z,1.41
2023-03-02T07:10:12.421Z,1.43
2023-03-02T07:12:42.157Z,1.81
2023-03-02T07:15:11.263Z,1.79
2023-03-02T07:17:39.158Z,1.85
2023-03-02T07:20:07.804Z,1.90
2023-03-02T07:22:36.198Z,2.09
2023-03-02T07:25:04.247Z,2.20
2023-03-02T07:27:32.392Z,2.22
2023-03-02T07:30:01.867Z,2.37
2023-03-02T07:32:29.997Z,2.44
2023-03-02T07:34:58.230Z,2.32
2023-03-02T07:37:26.063Z,2.36
2023-03-02T07:39:54.475Z,2.50
2023-03-02T07:42:22.405Z,2.54
2023-03-02T07:44:57.607Z,2.83
2023-03-02T07:47:28.505Z,2.88
2023-03-02T07:49:56.640Z,3.13
2023-03-02T07:52:24.686Z,3.06
2023-03-02T07:54:54.355Z,3.35
2023-03-02T07:57:22.269Z,3.26
2023-03-02T07:59:51.390Z,3.58
2023-03-02T08:02:20.659Z,3.66
2023-03-02T08:04:51.015Z,3.92
2023-03-02T08:07:18.955Z,3.59
2023-03-02T08:09:47.251Z,4.12
2023-03-02T08:12:17.529Z,3.55
2023-03-02T08:14:48.625Z,3.72
2023-03-02T08:17:16.555Z,4.28
2023-03-02T08:19:44.688Z,3.72
2023-03-02T08:22:14.561Z,4.12
2023-03-02T08:24:43.007Z,4.34
2023-03-02T08:27:13.470Z,4.47
2023-03-02T08:29:43.682Z,4.09
2023-03-02T08:32:12.320Z,4.24
2023-03-02T08:34:40.539Z,4.36
2023-03-02T08:37:08.762Z,4.60
2023-03-02T08:39:39.442Z,4.99
2023-03-02T08:42:07.823Z,4.68
2023-03-02T08:44:36.037Z,4.88
2023-03-02T08:47:04.682Z,5.57
2023-03-02T08:49:34.428Z,5.99
2023-03-02T08:52:02.841Z,5.88
2023-03-02T08:54:31.203Z,5.62
2023-03-02T08:57:00.788Z,5.65
2023-03-02T08:59:29.397Z,5.48
2023-03-02T09:01:57.678Z,5.30
2023-03-02T09:04:25.919Z,5.61
2023-03-02T09:06:54.860Z,5.67
2023-03-02T09:09:23.167Z,5.68
2023-03-02T09:11:51.490Z,5.93
2023-03-02T09:14:21.223Z,5.57
2023-03-02T09:16:49.284Z,5.54
2023-03-02T09:19:17.483Z,6.07
2023-03-02T09:21:46.009Z,5.99
2023-03-02T09:24:13.994Z,6.14
2023-03-02T09:26:42.369Z,6.54
2023-03-02T09:29:10.353Z,6.74
2023-03-02T09:31:39.819Z,6.39
2023-03-02T09:34:07.973Z,6.75
2023-03-02T09:36:36.714Z,6.90
2023-03-02T09:39:09.419Z,7.05
2023-03-02T09:41:54.352Z,7.38
2023-03-02T09:44:36.540Z,7.33
2023-03-02T09:47:19.811Z,7.84
2023-03-02T09:49:59.253Z,8.13
2023-03-02T09:52:31.119Z,8.62
2023-03-02T09:55:00.818Z,8.84
2023-03-02T09:57:33.245Z,9.21
2023-03-02T10:00:12.917Z,9.80
2023-03-02T10:02:50.316Z,10.35
2023-03-02T10:05:20.005Z,11.00
2023-03-02T10:07:49.562Z,10.75
2023-03-02T10:10:25.331Z,10.20
2023-03-02T10:13:00.118Z,11.15
2023-03-02T10:15:32.525Z,11.13
2023-03-02T10:18:05.284Z,11.20
2023-03-02T10:20:36.021Z,12.12
2023-03-02T10:23:09.474Z,12.32
2023-03-02T10:25:40.788Z,13.01
2023-03-02T10:28:14.951Z,12.85
2023-03-02T10:30:44.677Z,12.68
2023-03-02T10:33:16.474Z,13.73
2023-03-02T10:35:47.468Z,13.65
2023-03-02T10:38:16.554Z,13.79
2023-03-02T10:40:46.949Z,14.67
2023-03-02T10:43:17.171Z,14.23
2023-03-02T10:45:46.553Z,14.12
2023-03-02T10:48:16.690Z,13.26
2023-03-02T10:50:46.225Z,13.91
2023-03-02T10:53:18.256Z,14.31
2023-03-02T10:55:47.752Z,13.54
2023-03-02T10:58:30.687Z,12.55
2023-03-02T11:01:00.520Z,14.30
2023-03-02T11:03:36.474Z,16.24
2023-03-02T11:06:12.961Z,14.91
2023-03-02T11:08:41.180Z,15.18
2023-03-02T11:11:21.902Z,15.80
2023-03-02T11:13:51.097Z,14.32
2023-03-02T11:16:25.208Z,15.27
2023-03-02T11:18:57.638Z,14.51
2023-03-02T11:21:30.777Z,15.23
2023-03-02T11:24:02.105Z,13.96
2023-03-02T11:26:32.960Z,15.10
2023-03-02T11:29:02.419Z,16.38
2023-03-02T11:31:35.184Z,15.99
2023-03-02T11:34:17.711Z,16.21
2023-03-02T11:36:50.604Z,17.36
2023-03-02T11:39:21.283Z,16.99
2023-03-02T11:41:49.433Z,17.48
2023-03-02T11:44:18.573Z,17.90
2023-03-02T11:46:49.300Z,19.08
2023-03-02T11:49:20.789Z,16.18
2023-03-02T11:51:58.106Z,17.16
2023-03-02T11:54:34.049Z,18.62
2023-03-02T11:57:02.847Z,18.17
2023-03-02T11:59:31.770Z,17.86
2023-03-02T12:02:00.832Z,16.80
2023-03-02T12:04:32.434Z,18.41
2023-03-02T12:07:01.569Z,16.33
2023-03-02T12:09:33.356Z,16.67
2023-03-02T12:12:11.826Z,16.47
2023-03-02T12:14:40.876Z,18.47
2023-03-02T12:17:20.269Z,18.06
2023-03-02T12:19:50.917Z,17.94
2023-03-02T12:22:27.769Z,16.67
2023-03-02T12:25:01.397Z,17.07
2023-03-02T12:27:35.195Z,16.51
2023-03-02T12:30:24.644Z,17.14
2023-03-02T12:33:00.451Z,16.36
2023-03-02T12:35:30.027Z,14.64
2023-03-02T12:37:59.736Z,17.07
2023-03-02T12:40:45.294Z,17.87
2023-03-02T12:43:27.585Z,16.92
2023-03-02T12:46:03.858Z,15.54
2023-03-02T12:48:33.048Z,15.42
2023-03-02T12:51:03.451Z,16.90
2023-03-02T12:53:31.610Z,16.19
2023-03-02T12:55:59.230Z,16.52
2023-03-02T12:58:27.814Z,19.05
2023-03-02T13:00:57.425Z,19.26
2023-03-02T13:03:26.455Z,16.94
2023-03-02T13:06:02.850Z,16.10
2023-03-02T13:08:31.691Z,17.97
2023-03-02T13:11:01.535Z,18.89
2023-03-02T13:13:35.777Z,18.40
2023-03-02T13:16:05.640Z,16.44
2023-03-02T13:18:34.572Z,17.17
2023-03-02T13:21:05.831Z,16.63
2023-03-02T13:23:34.510Z,15.53
2023-03-02T13:26:03.390Z,16.42
2023-03-02T13:28:31.566Z,17.82
2023-03-02T13:31:00.972Z,16.93
2023-03-02T13:33:29.681Z,19.06
2023-03-02T13:35:57.921Z,20.34
2023-03-02T13:38:28.426Z,19.43
2023-03-02T13:40:56.739Z,17.92
2023-03-02T13:43:31.541Z,18.31
2023-03-02T13:45:59.907Z,18.17
2023-03-02T13:48:29.005Z,17.87
2023-03-02T13:50:58.494Z,17.08
2023-03-02T13:53:29.995Z,15.94
2023-03-02T13:56:02.686Z,17.63
2023-03-02T13:58:33.424Z,17.37
2023-03-02T14:01:01.554Z,18.23
2023-03-02T14:03:30.775Z,19.01
2023-03-02T14:05:59.595Z,19.25
2023-03-02T14:08:28.697Z,16.41
2023-03-02T14:10:58.342Z,15.50
2023-03-02T14:13:27.081Z,16.52
2023-03-02T14:15:55.235Z,19.29
2023-03-02T14:18:29.913Z,18.33
2023-03-02T14:20:58.738Z,19.37
2023-03-02T14:23:26.918Z,18.35
2023-03-02T14:25:56.896Z,16.46
2023-03-02T14:28:27.134Z,15.72
2023-03-02T14:30:56.469Z,15.76
2023-03-02T14:33:24.957Z,17.70
2023-03-02T14:35:53.909Z,18.13
2023-03-02T14:38:22.309Z,17.65
2023-03-02T14:40:50.430Z,17.79
2023-03-02T14:43:21.291Z,19.75
2023-03-02T14:45:49.081Z,19.66
2023-03-02T14:48:16.816Z,19.70
2023-03-02T14:50:47.138Z,16.65
2023-03-02T14:53:18.466Z,17.62
2023-03-02T14:55:47.806Z,16.46
2023-03-02T14:58:17.661Z,17.43
2023-03-02T15:00:47.586Z,18.10
2023-03-02T15:03:16.043Z,17.51
2023-03-02T15:05:51.744Z,16.59
2023-03-02T15:08:27.074Z,16.39
2023-03-02T15:10:54.835Z,16.31
2023-03-02T15:13:22.500Z,17.00
2023-03-02T15:15:52.906Z,17.49
2023-03-02T15:18:21.129Z,16.02
2023-03-02T15:20:48.855Z,15.44
2023-03-02T15:23:16.962Z,16.36
2023-03-02T15:25:44.822Z,16.46
2023-03-02T15:28:14.049Z,16.24
2023-03-02T15:30:42.617Z,15.77
2023-03-02T15:33:12.143Z,15.44
2023-03-02T15:35:40.945Z,15.02
2023-03-02T15:38:09.353Z,16.11
2023-03-02T15:40:38.854Z,15.94
2023-03-02T15:43:06.945Z,15.68
2023-03-02T15:45:35.422Z,15.20
2023-03-02T15:48:03.813Z,15.30
2023-03-02T15:50:34.597Z,15.64
2023-03-02T15:53:02.930Z,15.24
2023-03-02T15:55:33.881Z,15.22
2023-03-02T15:58:01.895Z,14.21
2023-03-02T16:00:35.258Z,14.32
2023-03-02T16:03:03.079Z,13.84
2023-03-02T16:05:31.152Z,12.88
2023-03-02T16:08:00.547Z,12.88
2023-03-02T16:10:31.822Z,13.55
2023-03-02T16:13:09.065Z,13.72
2023-03-02T16:15:42.274Z,13.01
2023-03-02T16:18:10.883Z,12.47
2023-03-02T16:20:39.797Z,12.40
2023-03-02T16:23:09.608Z,12.08
2023-03-02T16:25:39.850Z,12.06
2023-03-02T16:28:08.288Z,11.98
2023-03-02T16:30:36.913Z,12.19
2023-03-02T16:33:05.830Z,12.08
2023-03-02T16:35:36.669Z,11.75
2023-03-02T16:38:04.470Z,11.71
2023-03-02T16:40:36.767Z,11.47
2023-03-02T16:43:06.225Z,11.25
2023-03-02T16:45:34.088Z,11.12
2023-03-02T16:48:01.942Z,11.17
2023-03-02T16:50:29.672Z,10.95
2023-03-02T16:52:58.228Z,10.78
2023-03-02T16:55:26.970Z,10.51
2023-03-02T16:57:56.150Z,10.25
2023-03-02T17:00:24.463Z,10.03
2023-03-02T17:02:52.872Z,9.89
2023-03-02T17:05:21.850Z,9.75
2023-03-02T17:07:49.682Z,9.66
2023-03-02T17:10:19.906Z,9.52
2023-03-02T17:12:47.595Z,9.40
2023-03-02T17:15:16.799Z,9.29
2023-03-02T17:17:44.860Z,9.26
2023-03-02T17:20:14.072Z,9.20
2023-03-02T17:22:41.782Z,9.18
2023-03-02T17:25:11.220Z,9.09
2023-03-02T17:27:39.629Z,9.01
2023-03-02T17:30:08.599Z,9.05
2023-03-02T17:32:38.120Z,8.98
2023-03-02T17:35:10.191Z,8.96
2023-03-02T17:37:38.051Z,8.90
2023-03-02T17:40:07.499Z,8.75
2023-03-02T17:42:35.207Z,8.57
2023-03-02T17:45:03.007Z,8.48
2023-03-02T17:47:32.887Z,8.38
2023-03-02T17:50:01.905Z,8.41
2023-03-02T17:52:29.900Z,8.35
2023-03-02T17:54:57.983Z,8.35
2023-03-02T17:57:26.497Z,8.36
2023-03-02T17:59:54.365Z,8.15
2023-03-02T18:02:22.547Z,8.02
2023-03-02T18:04:50.649Z,7.93
2023-03-02T18:07:21.253Z,7.79
2023-03-02T18:09:51.089Z,7.70
2023-03-02T18:12:18.946Z,7.69
2023-03-02T18:14:47.537Z,7.72
2023-03-02T18:17:17.137Z,7.74
2023-03-02T18:19:45.864Z,7.81
2023-03-02T18:22:14.747Z,7.76
2023-03-02T18:24:44.367Z,7.56
2023-03-02T18:27:12.803Z,7.39
2023-03-02T18:29:40.926Z,7.29
2023-03-02T18:32:09.139Z,7.22
2023-03-02T18:34:38.474Z,7.28
2023-03-02T18:37:06.491Z,7.29
2023-03-02T18:39:34.862Z,7.33
2023-03-02T18:42:04.906Z,7.32
2023-03-02T18:44:33.101Z,7.30
2023-03-02T18:47:01.014Z,7.25
2023-03-02T18:49:29.147Z,7.25
2023-03-02T18:51:58.969Z,7.14
2023-03-02T18:54:26.840Z,7.04
2023-03-02T18:56:55.682Z,6.88
2023-03-02T18:59:25.240Z,6.79
2023-03-02T19:01:53.141Z,6.82
2023-03-02T19:04:23.630Z,6.76
2023-03-02T19:06:51.355Z,6.74
2023-03-02T19:09:19.100Z,6.68
2023-03-02T19:11:49.177Z,6.76
2023-03-02T19:14:19.568Z,6.74
2023-03-02T19:16:49.430Z,6.71
2023-03-02T19:19:26.074Z,6.64
2023-03-02T19:21:54.544Z,6.52
2023-03-02T19:24:25.091Z,6.38
2023-03-02T19:26:53.773Z,6.33
2023-03-02T19:29:22.256Z,6.17
2023-03-02T19:31:52.118Z,6.13
2023-03-02T19:34:20.578Z,6.05
2023-03-02T19:36:48.297Z,6.11
2023-03-02T19:39:16.133Z,6.12
2023-03-02T19:41:44.340Z,6.18
2023-03-02T19:44:12.541Z,6.07
2023-03-02T19:46:40.344Z,6.12
2023-03-02T19:49:10.085Z,6.21
2023-03-02T19:51:39.233Z,6.18
2023-03-02T19:54:09.714Z,6.08
2023-03-02T19:56:39.829Z,6.09
2023-03-02T19:59:08.316Z,6.08
2023-03-02T20:01:36.223Z,6.07
2023-03-02T20:04:04.733Z,6.08
2023-03-02T20:06:35.898Z,6.12
2023-03-02T20:09:05.354Z,6.06
2023-03-02T20:11:33.290Z,6.05
2023-03-02T20:14:03.356Z,6.03
2023-03-02T20:16:31.857Z,6.01
2023-03-02T20:19:02.049Z,5.97
2023-03-02T20:21:29.679Z,5.93
2023-03-02T20:23:59.163Z,5.93
2023-03-02T20:26:28.413Z,5.91
2023-03-02T20:28:56.644Z,5.87
2023-03-02T20:31:25.023Z,5.82
2023-03-02T20:33:53.912Z,5.74
2023-03-02T20:36:26.872Z,5.76
2023-03-02T20:38:56.579Z,5.78
2023-03-02T20:41:25.928Z,5.72
2023-03-02T20:43:53.732Z,5.74
2023-03-02T20:46:25.015Z,5.76
2023-03-02T20:48:56.225Z,5.75
2023-03-02T20:51:25.226Z,5.67
2023-03-02T20:53:53.283Z,5.59
2023-03-02T20:56:23.672Z,5.56
2023-03-02T20:59:02.365Z,5.54
2023-03-02T21:01:30.100Z,5.37
2023-03-02T21:03:58.427Z,5.41
2023-03-02T21:06:29.584Z,5.45
2023-03-02T21:08:59.688Z,5.36
2023-03-02T21:11:28.268Z,5.37
2023-03-02T21:13:57.902Z,5.30
2023-03-02T21:16:27.175Z,5.24
2023-03-02T21:18:56.146Z,5.14
2023-03-02T21:21:35.706Z,5.14
2023-03-02T21:24:08.860Z,5.08
2023-03-02T21:26:37.203Z,5.05
2023-03-02T21:29:06.626Z,5.08
2023-03-02T21:31:34.624Z,5.12
2023-03-02T21:34:02.532Z,5.10
2023-03-02T21:36:30.253Z,5.01
2023-03-02T21:38:58.605Z,4.89
2023-03-02T21:41:50.871Z,4.79
2023-03-02T21:44:20.695Z,4.69
2023-03-02T21:46:48.529Z,4.70
2023-03-02T21:49:17.361Z,4.69
2023-03-02T21:51:45.429Z,4.67
2023-03-02T21:54:15.301Z,4.64
2023-03-02T21:56:47.224Z,4.50
2023-03-02T21:59:15.094Z,4.52
2023-03-02T22:01:45.646Z,4.50
2023-03-02T22:04:13.396Z,4.42
2023-03-02T22:06:41.098Z,4.25
2023-03-02T22:09:08.672Z,4.19
2023-03-02T22:11:37.394Z,4.22
2023-03-02T22:14:11.504Z,4.17
2023-03-02T22:16:40.436Z,4.14
2023-03-02T22:19:25.045Z,4.15
2023-03-02T22:21:53.789Z,4.08
2023-03-02T22:24:23.157Z,4.10
2023-03-02T22:26:54.337Z,4.08
2023-03-02T22:29:24.233Z,4.06
2023-03-02T22:31:53.438Z,3.99
2023-03-02T22:34:24.320Z,4.06
2023-03-02T22:36:52.482Z,4.12
2023-03-02T22:39:26.596Z,4.10
2023-03-02T22:41:54.923Z,4.07
2023-03-02T22:44:22.833Z,4.04
2023-03-02T22:46:54.377Z,4.02
2023-03-02T22:49:23.698Z,3.99
2023-03-02T22:51:51.477Z,3.97
2023-03-02T22:54:22.633Z,3.88
2023-03-02T22:56:52.380Z,3.81
2023-03-02T22:59:25.070Z,3.74
2023-03-02T23:01:52.991Z,3.68
2023-03-02T23:04:22.997Z,3.66
2023-03-02T23:06:53.299Z,3.65
2023-03-02T23:09:22.620Z,3.65
2023-03-02T23:11:51.019Z,3.66
2023-03-02T23:14:22.470Z,3.69
2023-03-02T23:16:53.139Z,3.67
2023-03-02T23:19:21.343Z,3.64
2023-03-02T23:21:52.595Z,3.55
2023-03-02T23:24:22.225Z,3.51
2023-03-02T23:26:52.369Z,3.40
2023-03-02T23:29:21.585Z,3.39
2023-03-02T23:31:50.294Z,3.32
2023-03-02T23:34:20.619Z,3.28
2023-03-02T23:36:51.943Z,3.23
2023-03-02T23:39:21.621Z,3.30
2023-03-02T23:41:49.505Z,3.25
2023-03-02T23:44:17.553Z,3.18
2023-03-02T23:46:45.971Z,3.13
2023-03-02T23:49:14.667Z,3.08
2023-03-02T23:51:43.689Z,3.01
2023-03-02T23:54:12.080Z,3.02
2023-03-02T23:56:41.537Z,2.91
2023-03-02T23:59:09.774Z,2.99
